sensor_id;sensor_type;location;lat;lon;timestamp;pressure;altitude;pressure_sealevel;temperature;humidity
12791;BME280;6459;42.678;23.310;2022-07-23T00:01:28;53758.50;;;-144.00;43.21
12791;BME280;6459;42.678;23.310;2022-07-23T00:03:56;53748.53;;;-144.00;43.78
12791;BME280;6459;42.678;23.310;2022-07-23T00:06:25;53756.50;;;-144.00;43.68
12791;BME280;6459;42.678;23.310;2022-07-23T00:08:54;53728.63;;;-144.00;44.00
12791;BME280;6459;42.678;23.310;2022-07-23T00:11:23;53746.56;;;-144.00;44.23
12791;BME280;6459;42.678;23.310;2022-07-23T00:13:51;53758.50;;;-144.00;44.25
12791;BME280;6459;42.678;23.310;2022-07-23T00:16:21;53714.69;;;-144.00;43.63
12791;BME280;6459;42.678;23.310;2022-07-23T00:18:49;53752.53;;;-144.00;43.55
12791;BME280;6459;42.678;23.310;2022-07-23T00:21:18;53758.50;;;-144.00;43.91
12791;BME280;6459;42.678;23.310;2022-07-23T00:23:46;53750.53;;;-144.00;44.66
12791;BME280;6459;42.678;23.310;2022-07-23T00:26:16;53740.56;;;-144.00;44.82
12791;BME280;6459;42.678;23.310;2022-07-23T00:28:44;53738.59;;;-144.00;44.68
12791;BME280;6459;42.678;23.310;2022-07-23T00:31:12;53766.47;;;-144.00;44.75
12791;BME280;6459;42.678;23.310;2022-07-23T00:33:40;53770.47;;;-144.00;44.65
12791;BME280;6459;42.678;23.310;2022-07-23T00:36:09;53762.50;;;-144.00;44.81
12791;BME280;6459;42.678;23.310;2022-07-23T00:38:37;53752.53;;;-144.00;45.02
12791;BME280;6459;42.678;23.310;2022-07-23T00:41:05;53748.53;;;-144.00;44.92
12791;BME280;6459;42.678;23.310;2022-07-23T00:43:35;53734.59;;;-144.00;45.01
12791;BME280;6459;42.678;23.310;2022-07-23T00:46:03;53780.41;;;-144.00;45.17
12791;BME280;6459;42.678;23.310;2022-07-23T00:48:32;53722.66;;;-144.00;45.22
12791;BME280;6459;42.678;23.310;2022-07-23T00:51:00;53778.44;;;-144.00;45.17
12791;BME280;6459;42.678;23.310;2022-07-23T00:53:28;53746.56;;;-144.00;45.39
12791;BME280;6459;42.678;23.310;2022-07-23T00:55:58;53754.53;;;-144.00;45.66
12791;BME280;6459;42.678;23.310;2022-07-23T00:58:26;53768.47;;;-144.00;45.38
12791;BME280;6459;42.678;23.310;2022-07-23T01:00:56;53784.41;;;-144.00;45.58
12791;BME280;6459;42.678;23.310;2022-07-23T01:03:25;53748.53;;;-144.00;45.97
12791;BME280;6459;42.678;23.310;2022-07-23T01:05:53;53766.47;;;-144.00;46.06
12791;BME280;6459;42.678;23.310;2022-07-23T01:08:21;53782.41;;;-144.00;46.51
12791;BME280;6459;42.678;23.310;2022-07-23T01:10:50;53826.25;;;-144.00;46.70
12791;BME280;6459;42.678;23.310;2022-07-23T01:13:19;53780.41;;;-144.00;47.22
12791;BME280;6459;42.678;23.310;2022-07-23T01:15:47;53794.38;;;-144.00;47.60
12791;BME280;6459;42.678;23.310;2022-07-23T01:18:17;53818.28;;;-144.00;47.60
12791;BME280;6459;42.678;23.310;2022-07-23T01:20:45;53778.44;;;-144.00;47.61
12791;BME280;6459;42.678;23.310;2022-07-23T01:23:14;53820.25;;;-144.00;47.64
12791;BME280;6459;42.678;23.310;2022-07-23T01:25:48;53826.25;;;-144.00;48.27
12791;BME280;6459;42.678;23.310;2022-07-23T01:28:17;53804.31;;;-144.00;48.00
12791;BME280;6459;42.678;23.310;2022-07-23T01:30:45;53810.31;;;-144.00;48.10
12791;BME280;6459;42.678;23.310;2022-07-23T01:33:14;53794.38;;;-144.00;47.50
12791;BME280;6459;42.678;23.310;2022-07-23T01:35:43;53796.34;;;-144.00;47.67
12791;BME280;6459;42.678;23.310;2022-07-23T01:38:12;53802.34;;;-144.00;47.85
12791;BME280;6459;42.678;23.310;2022-07-23T01:40:41;53802.34;;;-144.00;48.08
12791;BME280;6459;42.678;23.310;2022-07-23T01:43:11;53844.16;;;-144.00;48.70
12791;BME280;6459;42.678;23.310;2022-07-23T01:45:42;53862.09;;;-144.00;49.06
12791;BME280;6459;42.678;23.310;2022-07-23T01:48:11;53836.19;;;-144.00;49.53
12791;BME280;6459;42.678;23.310;2022-07-23T01:50:39;53870.06;;;-144.00;49.52
12791;BME280;6459;42.678;23.310;2022-07-23T01:53:07;53832.22;;;-144.00;49.38
12791;BME280;6459;42.678;23.310;2022-07-23T01:55:36;53846.16;;;-144.00;49.36
12791;BME280;6459;42.678;23.310;2022-07-23T01:58:06;53858.13;;;-144.00;49.21
12791;BME280;6459;42.678;23.310;2022-07-23T02:00:34;53854.13;;;-144.00;49.45
12791;BME280;6459;42.678;23.310;2022-07-23T02:03:02;53858.13;;;-144.00;49.16
12791;BME280;6459;42.678;23.310;2022-07-23T02:05:35;53870.06;;;-144.00;48.92
12791;BME280;6459;42.678;23.310;2022-07-23T02:08:04;53866.09;;;-144.00;48.83
12791;BME280;6459;42.678;23.310;2022-07-23T02:10:32;53778.44;;;-144.00;48.49
12791;BME280;6459;42.678;23.310;2022-07-23T02:13:00;53846.16;;;-144.00;47.60
12791;BME280;6459;42.678;23.310;2022-07-23T02:15:30;53824.25;;;-144.00;47.37
12791;BME280;6459;42.678;23.310;2022-07-23T02:17:58;53826.25;;;-144.00;47.77
12791;BME280;6459;42.678;23.310;2022-07-23T02:20:26;53802.34;;;-144.00;47.77
12791;BME280;6459;42.678;23.310;2022-07-23T02:22:55;53832.22;;;-144.00;47.43
12791;BME280;6459;42.678;23.310;2022-07-23T02:25:24;53834.22;;;-144.00;47.21
12791;BME280;6459;42.678;23.310;2022-07-23T02:27:52;53850.16;;;-144.00;47.21
12791;BME280;6459;42.678;23.310;2022-07-23T02:30:20;53822.25;;;-144.00;46.86
12791;BME280;6459;42.678;23.310;2022-07-23T02:32:49;53834.22;;;-144.00;46.39
12791;BME280;6459;42.678;23.310;2022-07-23T02:35:18;53826.25;;;-144.00;46.41
12791;BME280;6459;42.678;23.310;2022-07-23T02:37:46;53818.28;;;-144.00;46.44
12791;BME280;6459;42.678;23.310;2022-07-23T02:40:17;53812.28;;;-144.00;46.44
12791;BME280;6459;42.678;23.310;2022-07-23T02:42:45;53830.22;;;-144.00;46.53
12791;BME280;6459;42.678;23.310;2022-07-23T02:45:13;53834.22;;;-144.00;46.57
12791;BME280;6459;42.678;23.310;2022-07-23T02:47:42;53826.25;;;-144.00;46.48
12791;BME280;6459;42.678;23.310;2022-07-23T02:50:11;53824.25;;;-144.00;46.77
12791;BME280;6459;42.678;23.310;2022-07-23T02:52:39;53814.28;;;-144.00;46.71
12791;BME280;6459;42.678;23.310;2022-07-23T02:55:08;53834.22;;;-144.00;46.88
12791;BME280;6459;42.678;23.310;2022-07-23T02:57:37;53834.22;;;-144.00;47.25
12791;BME280;6459;42.678;23.310;2022-07-23T03:00:06;53840.19;;;-144.00;47.79
12791;BME280;6459;42.678;23.310;2022-07-23T03:02:35;53850.16;;;-144.00;47.70
12791;BME280;6459;42.678;23.310;2022-07-23T03:05:04;53856.13;;;-144.00;48.07
12791;BME280;6459;42.678;23.310;2022-07-23T03:07:34;53882.03;;;-144.00;48.35
12791;BME280;6459;42.678;23.310;2022-07-23T03:10:02;53874.06;;;-144.00;48.73
12791;BME280;6459;42.678;23.310;2022-07-23T03:12:32;53838.19;;;-144.00;49.00
12791;BME280;6459;42.678;23.310;2022-07-23T03:15:00;53858.13;;;-144.00;49.42
12791;BME280;6459;42.678;23.310;2022-07-23T03:17:28;53874.06;;;-144.00;49.29
12791;BME280;6459;42.678;23.310;2022-07-23T03:19:56;53818.28;;;-144.00;49.44
12791;BME280;6459;42.678;23.310;2022-07-23T03:22:24;53858.13;;;-144.00;49.54
12791;BME280;6459;42.678;23.310;2022-07-23T03:24:54;53874.06;;;-144.00;50.00
12791;BME280;6459;42.678;23.310;2022-07-23T03:27:23;53854.13;;;-144.00;49.93
12791;BME280;6459;42.678;23.310;2022-07-23T03:29:53;53866.09;;;-144.00;50.14
12791;BME280;6459;42.678;23.310;2022-07-23T03:32:21;53858.13;;;-144.00;50.42
12791;BME280;6459;42.678;23.310;2022-07-23T03:34:50;53862.09;;;-144.00;50.29
12791;BME280;6459;42.678;23.310;2022-07-23T03:37:19;53891.97;;;-144.00;50.49
12791;BME280;6459;42.678;23.310;2022-07-23T03:39:47;53864.09;;;-144.00;49.84
12791;BME280;6459;42.678;23.310;2022-07-23T03:42:17;53850.16;;;-144.00;49.28
12791;BME280;6459;42.678;23.310;2022-07-23T03:44:45;53882.03;;;-144.00;48.96
12791;BME280;6459;42.678;23.310;2022-07-23T03:47:13;53868.06;;;-144.00;49.21
12791;BME280;6459;42.678;23.310;2022-07-23T03:49:42;53830.22;;;-144.00;48.98
12791;BME280;6459;42.678;23.310;2022-07-23T03:52:10;53838.19;;;-144.00;48.89
12791;BME280;6459;42.678;23.310;2022-07-23T03:54:38;53834.22;;;-144.00;49.21
12791;BME280;6459;42.678;23.310;2022-07-23T03:57:07;53864.09;;;-144.00;49.46
12791;BME280;6459;42.678;23.310;2022-07-23T03:59:37;53878.03;;;-144.00;49.53
12791;BME280;6459;42.678;23.310;2022-07-23T04:02:05;53866.09;;;-144.00;49.78
12791;BME280;6459;42.678;23.310;2022-07-23T04:04:33;53856.13;;;-144.00;50.12
12791;BME280;6459;42.678;23.310;2022-07-23T04:07:02;53830.22;;;-144.00;50.54
12791;BME280;6459;42.678;23.310;2022-07-23T04:09:31;53866.09;;;-144.00;50.90
12791;BME280;6459;42.678;23.310;2022-07-23T04:11:59;53854.13;;;-144.00;50.65
12791;BME280;6459;42.678;23.310;2022-07-23T04:14:28;53874.06;;;-144.00;50.29
12791;BME280;6459;42.678;23.310;2022-07-23T04:16:57;53850.16;;;-144.00;49.48
12791;BME280;6459;42.678;23.310;2022-07-23T04:19:29;53830.22;;;-144.00;49.26
12791;BME280;6459;42.678;23.310;2022-07-23T04:22:00;53838.19;;;-144.00;48.75
12791;BME280;6459;42.678;23.310;2022-07-23T04:24:28;53838.19;;;-144.00;48.55
12791;BME280;6459;42.678;23.310;2022-07-23T04:26:56;53844.16;;;-144.00;47.67
12791;BME280;6459;42.678;23.310;2022-07-23T04:29:25;53830.22;;;-144.00;47.79
12791;BME280;6459;42.678;23.310;2022-07-23T04:31:53;53822.25;;;-144.00;47.78
12791;BME280;6459;42.678;23.310;2022-07-23T04:34:23;53824.25;;;-144.00;47.65
12791;BME280;6459;42.678;23.310;2022-07-23T04:36:54;53862.09;;;-144.00;47.33
12791;BME280;6459;42.678;23.310;2022-07-23T04:39:22;53828.22;;;-144.00;47.41
12791;BME280;6459;42.678;23.310;2022-07-23T04:41:52;53830.22;;;-144.00;47.52
12791;BME280;6459;42.678;23.310;2022-07-23T04:44:21;53838.19;;;-144.00;47.73
12791;BME280;6459;42.678;23.310;2022-07-23T04:46:49;53828.22;;;-144.00;47.51
12791;BME280;6459;42.678;23.310;2022-07-23T04:49:20;53794.38;;;-144.00;47.55
12791;BME280;6459;42.678;23.310;2022-07-23T04:51:49;53808.31;;;-144.00;47.03
12791;BME280;6459;42.678;23.310;2022-07-23T04:54:18;53790.38;;;-144.00;47.11
12791;BME280;6459;42.678;23.310;2022-07-23T04:56:46;53784.41;;;-144.00;46.80
12791;BME280;6459;42.678;23.310;2022-07-23T04:59:14;53770.47;;;-144.00;45.41
12791;BME280;6459;42.678;23.310;2022-07-23T05:01:43;53688.78;;;-144.00;43.07
12791;BME280;6459;42.678;23.310;2022-07-23T05:04:12;53637.00;;;-144.00;40.50
12791;BME280;6459;42.678;23.310;2022-07-23T05:06:41;53603.13;;;-144.00;38.92
12791;BME280;6459;42.678;23.310;2022-07-23T05:09:11;53547.34;;;-144.00;37.05
12791;BME280;6459;42.678;23.310;2022-07-23T05:11:39;53489.59;;;-144.00;35.85
12791;BME280;6459;42.678;23.310;2022-07-23T05:14:07;53521.44;;;-144.00;35.11
12791;BME280;6459;42.678;23.310;2022-07-23T05:16:35;53467.66;;;-144.00;34.45
12791;BME280;6459;42.678;23.310;2022-07-23T05:19:03;53459.69;;;-144.00;33.39
12791;BME280;6459;42.678;23.310;2022-07-23T05:21:32;53419.88;;;-144.00;32.46
12791;BME280;6459;42.678;23.310;2022-07-23T05:24:01;53395.97;;;-144.00;32.21
12791;BME280;6459;42.678;23.310;2022-07-23T05:26:30;53388.00;;;-144.00;32.03
12791;BME280;6459;42.678;23.310;2022-07-23T05:28:59;53368.06;;;-144.00;31.53
12791;BME280;6459;42.678;23.310;2022-07-23T05:31:28;53376.03;;;-144.00;31.15
12791;BME280;6459;42.678;23.310;2022-07-23T05:33:56;53326.25;;;-144.00;30.86
12791;BME280;6459;42.678;23.310;2022-07-23T05:36:24;53362.09;;;-144.00;31.27
12791;BME280;6459;42.678;23.310;2022-07-23T05:38:53;53364.09;;;-144.00;30.98
12791;BME280;6459;42.678;23.310;2022-07-23T05:41:21;53352.13;;;-144.00;30.97
12791;BME280;6459;42.678;23.310;2022-07-23T05:43:50;53330.22;;;-144.00;30.99
12791;BME280;6459;42.678;23.310;2022-07-23T05:46:19;53302.34;;;-144.00;30.55
12791;BME280;6459;42.678;23.310;2022-07-23T05:48:47;53320.25;;;-144.00;30.23
12791;BME280;6459;42.678;23.310;2022-07-23T05:51:19;53413.88;;;-144.00;31.73
12791;BME280;6459;42.678;23.310;2022-07-23T05:53:48;53477.63;;;-144.00;33.15
12791;BME280;6459;42.678;23.310;2022-07-23T05:56:17;53503.53;;;-144.00;33.73
12791;BME280;6459;42.678;23.310;2022-07-23T05:58:45;53531.41;;;-144.00;34.57
12791;BME280;6459;42.678;23.310;2022-07-23T06:01:15;53515.47;;;-144.00;34.90
12791;BME280;6459;42.678;23.310;2022-07-23T06:03:43;53571.25;;;-144.00;35.65
12791;BME280;6459;42.678;23.310;2022-07-23T06:06:12;53597.16;;;-144.00;36.02
12791;BME280;6459;42.678;23.310;2022-07-23T06:08:41;53603.13;;;-144.00;36.55
12791;BME280;6459;42.678;23.310;2022-07-23T06:11:09;53567.28;;;-144.00;36.76
12791;BME280;6459;42.678;23.310;2022-07-23T06:13:37;53613.09;;;-144.00;36.92
12791;BME280;6459;42.678;23.310;2022-07-23T06:16:05;53567.28;;;-144.00;36.89
12791;BME280;6459;42.678;23.310;2022-07-23T06:18:35;53617.06;;;-144.00;37.37
12791;BME280;6459;42.678;23.310;2022-07-23T06:21:04;53631.00;;;-144.00;37.98
12791;BME280;6459;42.678;23.310;2022-07-23T06:23:52;53603.13;;;-144.00;38.01
12791;BME280;6459;42.678;23.310;2022-07-23T06:26:20;53623.03;;;-144.00;38.19
12791;BME280;6459;42.678;23.310;2022-07-23T06:28:49;53603.13;;;-144.00;38.04
12791;BME280;6459;42.678;23.310;2022-07-23T06:31:17;53589.19;;;-144.00;38.14
12791;BME280;6459;42.678;23.310;2022-07-23T06:33:47;53635.00;;;-144.00;38.34
12791;BME280;6459;42.678;23.310;2022-07-23T06:36:15;53611.09;;;-144.00;38.03
12791;BME280;6459;42.678;23.310;2022-07-23T06:38:44;53627.03;;;-144.00;37.79
12791;BME280;6459;42.678;23.310;2022-07-23T06:41:14;53607.09;;;-144.00;37.93
12791;BME280;6459;42.678;23.310;2022-07-23T06:43:45;53597.16;;;-144.00;37.97
12791;BME280;6459;42.678;23.310;2022-07-23T06:46:15;53631.00;;;-144.00;38.31
12791;BME280;6459;42.678;23.310;2022-07-23T06:48:44;53621.06;;;-144.00;38.93
12791;BME280;6459;42.678;23.310;2022-07-23T06:51:14;53597.16;;;-144.00;38.82
12791;BME280;6459;42.678;23.310;2022-07-23T06:53:42;53623.03;;;-144.00;38.45
12791;BME280;6459;42.678;23.310;2022-07-23T06:56:10;53613.09;;;-144.00;38.00
12791;BME280;6459;42.678;23.310;2022-07-23T06:58:39;53615.06;;;-144.00;37.94
12791;BME280;6459;42.678;23.310;2022-07-23T07:01:07;53599.16;;;-144.00;38.20
12791;BME280;6459;42.678;23.310;2022-07-23T07:03:36;53615.06;;;-144.00;38.12
12791;BME280;6459;42.678;23.310;2022-07-23T07:06:04;53627.03;;;-144.00;37.63
12791;BME280;6459;42.678;23.310;2022-07-23T07:08:35;53646.94;;;-144.00;37.68
12791;BME280;6459;42.678;23.310;2022-07-23T07:11:03;53581.22;;;-144.00;37.91
12791;BME280;6459;42.678;23.310;2022-07-23T07:13:31;53583.22;;;-144.00;38.13
12791;BME280;6459;42.678;23.310;2022-07-23T07:16:00;53613.09;;;-144.00;38.23
12791;BME280;6459;42.678;23.310;2022-07-23T07:18:28;53587.19;;;-144.00;38.00
12791;BME280;6459;42.678;23.310;2022-07-23T07:20:56;53545.34;;;-144.00;37.74
12791;BME280;6459;42.678;23.310;2022-07-23T07:23:25;53531.41;;;-144.00;37.30
12791;BME280;6459;42.678;23.310;2022-07-23T07:25:54;53599.16;;;-144.00;36.84
12791;BME280;6459;42.678;23.310;2022-07-23T07:28:22;53589.19;;;-144.00;36.81
12791;BME280;6459;42.678;23.310;2022-07-23T07:30:51;53585.19;;;-144.00;37.08
12791;BME280;6459;42.678;23.310;2022-07-23T07:33:19;53623.03;;;-144.00;37.00
12791;BME280;6459;42.678;23.310;2022-07-23T07:35:48;53583.22;;;-144.00;36.75
12791;BME280;6459;42.678;23.310;2022-07-23T07:38:16;53555.31;;;-144.00;36.24
12791;BME280;6459;42.678;23.310;2022-07-23T07:40:45;53581.22;;;-144.00;35.67
12791;BME280;6459;42.678;23.310;2022-07-23T07:43:17;53545.34;;;-144.00;35.75
12791;BME280;6459;42.678;23.310;2022-07-23T07:45:46;53571.25;;;-144.00;35.44
12791;BME280;6459;42.678;23.310;2022-07-23T07:48:14;53531.41;;;-144.00;35.10
12791;BME280;6459;42.678;23.310;2022-07-23T07:50:42;53527.44;;;-144.00;35.12
12791;BME280;6459;42.678;23.310;2022-07-23T07:53:13;53535.41;;;-144.00;35.00
12791;BME280;6459;42.678;23.310;2022-07-23T07:55:41;53543.38;;;-144.00;35.00
12791;BME280;6459;42.678;23.310;2022-07-23T07:58:18;53523.44;;;-144.00;35.13
12791;BME280;6459;42.678;23.310;2022-07-23T08:00:47;53539.38;;;-144.00;34.93
12791;BME280;6459;42.678;23.310;2022-07-23T08:03:15;53549.34;;;-144.00;34.73
12791;BME280;6459;42.678;23.310;2022-07-23T08:05:44;53535.41;;;-144.00;34.81
12791;BME280;6459;42.678;23.310;2022-07-23T08:08:12;53533.41;;;-144.00;34.92
12791;BME280;6459;42.678;23.310;2022-07-23T08:10:42;53527.44;;;-144.00;34.76
12791;BME280;6459;42.678;23.310;2022-07-23T08:13:13;53503.53;;;-144.00;34.13
12791;BME280;6459;42.678;23.310;2022-07-23T08:15:44;53515.47;;;-144.00;34.25
12791;BME280;6459;42.678;23.310;2022-07-23T08:18:12;53535.41;;;-144.00;34.47
12791;BME280;6459;42.678;23.310;2022-07-23T08:20:41;53515.47;;;-144.00;34.50
12791;BME280;6459;42.678;23.310;2022-07-23T08:23:09;53489.59;;;-144.00;34.51
12791;BME280;6459;42.678;23.310;2022-07-23T08:25:38;53491.56;;;-144.00;34.05
12791;BME280;6459;42.678;23.310;2022-07-23T08:28:08;53491.56;;;-144.00;34.07
12791;BME280;6459;42.678;23.310;2022-07-23T08:30:38;53481.63;;;-144.00;33.59
12791;BME280;6459;42.678;23.310;2022-07-23T08:33:09;53469.66;;;-144.00;33.71
12791;BME280;6459;42.678;23.310;2022-07-23T08:36:00;53495.56;;;-144.00;33.67
12791;BME280;6459;42.678;23.310;2022-07-23T08:38:30;53499.53;;;-144.00;33.24
12791;BME280;6459;42.678;23.310;2022-07-23T08:41:01;53467.66;;;-144.00;33.43
12791;BME280;6459;42.678;23.310;2022-07-23T08:43:32;53461.69;;;-144.00;33.62
12791;BME280;6459;42.678;23.310;2022-07-23T08:46:03;53481.63;;;-144.00;33.69
12791;BME280;6459;42.678;23.310;2022-07-23T08:48:34;53457.72;;;-144.00;33.91
12791;BME280;6459;42.678;23.310;2022-07-23T08:51:06;53437.78;;;-144.00;33.45
12791;BME280;6459;42.678;23.310;2022-07-23T08:53:35;53489.59;;;-144.00;33.14
12791;BME280;6459;42.678;23.310;2022-07-23T08:56:06;53451.72;;;-144.00;33.05
12791;BME280;6459;42.678;23.310;2022-07-23T08:58:35;53449.75;;;-144.00;32.52
12791;BME280;6459;42.678;23.310;2022-07-23T09:01:04;53419.88;;;-144.00;32.60
12791;BME280;6459;42.678;23.310;2022-07-23T09:03:35;53451.72;;;-144.00;32.39
12791;BME280;6459;42.678;23.310;2022-07-23T09:06:05;53431.81;;;-144.00;32.63
12791;BME280;6459;42.678;23.310;2022-07-23T09:08:36;53421.84;;;-144.00;32.45
12791;BME280;6459;42.678;23.310;2022-07-23T09:11:06;53425.84;;;-144.00;32.56
12791;BME280;6459;42.678;23.310;2022-07-23T09:13:37;53395.97;;;-144.00;32.55
12791;BME280;6459;42.678;23.310;2022-07-23T09:16:08;53427.84;;;-144.00;32.20
12791;BME280;6459;42.678;23.310;2022-07-23T09:18:43;53433.81;;;-144.00;32.20
12791;BME280;6459;42.678;23.310;2022-07-23T09:21:21;53419.88;;;-144.00;31.87
12791;BME280;6459;42.678;23.310;2022-07-23T09:23:54;53397.94;;;-144.00;32.06
12791;BME280;6459;42.678;23.310;2022-07-23T09:26:33;53415.88;;;-144.00;31.66
12791;BME280;6459;42.678;23.310;2022-07-23T09:29:10;53413.88;;;-144.00;31.15
12791;BME280;6459;42.678;23.310;2022-07-23T09:31:44;53431.81;;;-144.00;30.82
12791;BME280;6459;42.678;23.310;2022-07-23T09:34:16;53399.94;;;-144.00;31.09
12791;BME280;6459;42.678;23.310;2022-07-23T09:36:45;53395.97;;;-144.00;30.93
12791;BME280;6459;42.678;23.310;2022-07-23T09:39:16;53419.88;;;-144.00;30.73
12791;BME280;6459;42.678;23.310;2022-07-23T09:41:46;53374.03;;;-144.00;30.43
12791;BME280;6459;42.678;23.310;2022-07-23T09:44:16;53397.94;;;-144.00;30.60
12791;BME280;6459;42.678;23.310;2022-07-23T09:46:50;53376.03;;;-144.00;30.02
12791;BME280;6459;42.678;23.310;2022-07-23T09:49:23;53397.94;;;-144.00;29.99
12791;BME280;6459;42.678;23.310;2022-07-23T09:51:53;53419.88;;;-144.00;29.74
12791;BME280;6459;42.678;23.310;2022-07-23T09:54:31;53391.97;;;-144.00;28.86
12791;BME280;6459;42.678;23.310;2022-07-23T09:57:03;53356.13;;;-144.00;28.66
12791;BME280;6459;42.678;23.310;2022-07-23T09:59:34;53395.97;;;-144.00;28.30
12791;BME280;6459;42.678;23.310;2022-07-23T10:02:04;53380.03;;;-144.00;28.67
12791;BME280;6459;42.678;23.310;2022-07-23T10:04:34;53393.97;;;-144.00;28.92
12791;BME280;6459;42.678;23.310;2022-07-23T10:07:05;53348.16;;;-144.00;28.79
12791;BME280;6459;42.678;23.310;2022-07-23T10:09:38;53344.16;;;-144.00;28.80
12791;BME280;6459;42.678;23.310;2022-07-23T10:12:10;53356.13;;;-144.00;28.76
12791;BME280;6459;42.678;23.310;2022-07-23T10:14:49;53354.13;;;-144.00;28.91
12791;BME280;6459;42.678;23.310;2022-07-23T10:17:18;53336.19;;;-144.00;28.32
12791;BME280;6459;42.678;23.310;2022-07-23T10:19:47;53348.16;;;-144.00;27.96
12791;BME280;6459;42.678;23.310;2022-07-23T10:22:19;53352.13;;;-144.00;27.13
12791;BME280;6459;42.678;23.310;2022-07-23T10:24:58;53320.25;;;-144.00;27.31
12791;BME280;6459;42.678;23.310;2022-07-23T10:27:48;53332.22;;;-144.00;27.15
12791;BME280;6459;42.678;23.310;2022-07-23T10:30:28;53316.28;;;-144.00;27.13
12791;BME280;6459;42.678;23.310;2022-07-23T10:33:11;53320.25;;;-144.00;26.59
12791;BME280;6459;42.678;23.310;2022-07-23T10:35:50;53316.28;;;-144.00;26.72
12791;BME280;6459;42.678;23.310;2022-07-23T10:38:24;53280.44;;;-144.00;26.33
12791;BME280;6459;42.678;23.310;2022-07-23T10:41:02;53320.25;;;-144.00;25.91
12791;BME280;6459;42.678;23.310;2022-07-23T10:43:31;53296.38;;;-144.00;25.88
12791;BME280;6459;42.678;23.310;2022-07-23T10:46:22;53300.34;;;-144.00;25.40
12791;BME280;6459;42.678;23.310;2022-07-23T10:49:25;53308.31;;;-144.00;25.93
12791;BME280;6459;42.678;23.310;2022-07-23T10:52:25;53286.41;;;-144.00;25.38
12791;BME280;6459;42.678;23.310;2022-07-23T10:54:55;53308.31;;;-144.00;25.63
12791;BME280;6459;42.678;23.310;2022-07-23T10:57:25;53322.25;;;-144.00;25.78
12791;BME280;6459;42.678;23.310;2022-07-23T11:00:24;53288.41;;;-144.00;25.17
12791;BME280;6459;42.678;23.310;2022-07-23T11:02:54;53316.28;;;-144.00;24.93
12791;BME280;6459;42.678;23.310;2022-07-23T11:05:24;53294.38;;;-144.00;23.86
12791;BME280;6459;42.678;23.310;2022-07-23T11:08:16;53286.41;;;-144.00;23.27
12791;BME280;6459;42.678;23.310;2022-07-23T11:10:50;53308.31;;;-144.00;23.93
12791;BME280;6459;42.678;23.310;2022-07-23T11:13:36;53272.47;;;-144.00;24.07
12791;BME280;6459;42.678;23.310;2022-07-23T11:16:06;53258.53;;;-144.00;24.03
12791;BME280;6459;42.678;23.310;2022-07-23T11:18:54;53276.44;;;-144.00;24.44
12791;BME280;6459;42.678;23.310;2022-07-23T11:21:51;53264.50;;;-144.00;24.49
12791;BME280;6459;42.678;23.310;2022-07-23T11:24:22;53282.41;;;-144.00;24.53
12791;BME280;6459;42.678;23.310;2022-07-23T11:27:01;53260.50;;;-144.00;24.04
12791;BME280;6459;42.678;23.310;2022-07-23T11:29:54;53288.41;;;-144.00;24.46
12791;BME280;6459;42.678;23.310;2022-07-23T11:35:21;53266.47;;;-144.00;23.80
12791;BME280;6459;42.678;23.310;2022-07-23T11:37:50;53268.47;;;-144.00;23.81
12791;BME280;6459;42.678;23.310;2022-07-23T11:40:26;53248.56;;;-144.00;23.35
12791;BME280;6459;42.678;23.310;2022-07-23T11:42:59;53264.50;;;-144.00;23.12
12791;BME280;6459;42.678;23.310;2022-07-23T11:45:33;53282.41;;;-144.00;23.40
12791;BME280;6459;42.678;23.310;2022-07-23T11:48:07;53252.53;;;-144.00;23.25
12791;BME280;6459;42.678;23.310;2022-07-23T11:50:36;53248.56;;;-144.00;22.94
12791;BME280;6459;42.678;23.310;2022-07-23T11:53:04;53236.59;;;-144.00;23.20
12791;BME280;6459;42.678;23.310;2022-07-23T11:55:34;53236.59;;;-144.00;22.79
12791;BME280;6459;42.678;23.310;2022-07-23T11:58:02;53264.50;;;-144.00;22.37
12791;BME280;6459;42.678;23.310;2022-07-23T12:00:32;53244.56;;;-144.00;22.74
12791;BME280;6459;42.678;23.310;2022-07-23T12:03:06;53260.50;;;-144.00;23.08
12791;BME280;6459;42.678;23.310;2022-07-23T12:05:36;53210.72;;;-144.00;22.44
12791;BME280;6459;42.678;23.310;2022-07-23T12:08:07;53240.59;;;-144.00;22.53
12791;BME280;6459;42.678;23.310;2022-07-23T12:10:39;53246.56;;;-144.00;22.49
12791;BME280;6459;42.678;23.310;2022-07-23T12:13:11;53242.59;;;-144.00;22.00
12791;BME280;6459;42.678;23.310;2022-07-23T12:15:41;53192.78;;;-144.00;21.47
12791;BME280;6459;42.678;23.310;2022-07-23T12:18:11;53232.63;;;-144.00;21.21
12791;BME280;6459;42.678;23.310;2022-07-23T12:20:44;53236.59;;;-144.00;21.39
12791;BME280;6459;42.678;23.310;2022-07-23T12:23:14;53200.75;;;-144.00;21.84
12791;BME280;6459;42.678;23.310;2022-07-23T12:25:50;53234.63;;;-144.00;21.79
12791;BME280;6459;42.678;23.310;2022-07-23T12:28:28;53240.59;;;-144.00;21.75
12791;BME280;6459;42.678;23.310;2022-07-23T12:30:57;53210.72;;;-144.00;21.51
12791;BME280;6459;42.678;23.310;2022-07-23T12:33:27;53238.59;;;-144.00;22.00
12791;BME280;6459;42.678;23.310;2022-07-23T12:35:58;53244.56;;;-144.00;22.28
12791;BME280;6459;42.678;23.310;2022-07-23T12:38:35;53216.69;;;-144.00;21.36
12791;BME280;6459;42.678;23.310;2022-07-23T12:41:06;53226.66;;;-144.00;21.68
12791;BME280;6459;42.678;23.310;2022-07-23T12:43:38;53208.72;;;-144.00;21.22
12791;BME280;6459;42.678;23.310;2022-07-23T12:46:08;53188.81;;;-144.00;21.77
12791;BME280;6459;42.678;23.310;2022-07-23T12:48:38;53208.72;;;-144.00;21.57
12791;BME280;6459;42.678;23.310;2022-07-23T12:51:08;53232.63;;;-144.00;21.39
12791;BME280;6459;42.678;23.310;2022-07-23T12:53:49;53208.72;;;-144.00;21.47
12791;BME280;6459;42.678;23.310;2022-07-23T12:56:21;53212.72;;;-144.00;21.67
12791;BME280;6459;42.678;23.310;2022-07-23T12:58:52;53204.75;;;-144.00;21.72
12791;BME280;6459;42.678;23.310;2022-07-23T13:01:23;53192.78;;;-144.00;21.87